Time;durP1;ratioP1;P1;durP2;ratioP2;P2;SDS_P1;SDS_P2;PMS_P1;PMS_P2;Temp;Humidity;BMP_temperature;BMP_pressure;BME280_temperature;BME280_humidity;BME280_pressure;Samples;Min_cycle;Max_cycle;Signal;HPM_P1;HPM_P2
2023/07/21 00:02:12;;;;;;;5.63;5.13;;;18.10;99.90;;;;;;4973400;28;20023;-84
2023/07/21 00:04:37;;;;;;;6.53;5.38;;;17.90;99.90;;;;;;4972609;28;20093;-84
2023/07/21 00:07:03;;;;;;;5.45;5.05;;;17.80;99.90;;;;;;4973705;28;20430;-83
2023/07/21 00:09:28;;;;;;;6.90;6.18;;;17.90;99.90;;;;;;4973015;28;20050;-84
2023/07/21 00:11:54;;;;;;;6.32;5.82;;;17.80;99.90;;;;;;4972792;28;20532;-84
2023/07/21 00:14:20;;;;;;;6.82;5.30;;;17.80;99.90;;;;;;4973238;28;20026;-84
2023/07/21 00:16:45;;;;;;;6.63;6.03;;;17.80;99.90;;;;;;4973391;28;20057;-84
2023/07/21 00:19:12;;;;;;;5.45;5.05;;;17.90;99.90;;;;;;4972770;28;20058;-84
2023/07/21 00:21:38;;;;;;;6.72;6.13;;;17.90;99.90;;;;;;4973189;28;20050;-84
2023/07/21 00:24:04;;;;;;;6.10;5.50;;;18.00;99.90;;;;;;4976736;28;20505;-84
2023/07/21 00:26:30;;;;;;;6.80;5.22;;;17.90;99.90;;;;;;4975946;28;20034;-84
2023/07/21 00:28:57;;;;;;;5.93;5.30;;;18.00;99.90;;;;;;4976990;28;20027;-84
2023/07/21 00:31:22;;;;;;;5.93;5.43;;;17.90;99.90;;;;;;4977011;28;20026;-83
2023/07/21 00:33:48;;;;;;;5.97;5.13;;;17.90;99.90;;;;;;4976115;28;20511;-84
2023/07/21 00:36:14;;;;;;;5.30;4.80;;;18.20;99.90;;;;;;4976914;28;20027;-84
2023/07/21 00:38:40;;;;;;;4.35;3.92;;;17.90;99.90;;;;;;4965980;28;20042;-84
2023/07/21 00:41:06;;;;;;;5.95;5.10;;;17.90;99.90;;;;;;4956960;29;20027;-84
2023/07/21 00:43:32;;;;;;;6.88;4.43;;;17.90;99.90;;;;;;4957058;29;20069;-84
2023/07/21 00:45:58;;;;;;;4.95;4.65;;;18.20;99.90;;;;;;4957588;29;20121;-84
2023/07/21 00:48:24;;;;;;;4.32;4.03;;;18.10;99.90;;;;;;4956797;29;20481;-84
2023/07/21 00:50:52;;;;;;;5.25;3.97;;;17.90;99.90;;;;;;4957063;29;20083;-84
2023/07/21 00:53:19;;;;;;;6.43;4.85;;;18.50;99.90;;;;;;4957751;28;20058;-84
2023/07/21 00:55:47;;;;;;;5.18;4.78;;;17.90;99.90;;;;;;4960154;29;20432;-84
2023/07/21 00:58:13;;;;;;;7.57;5.03;;;17.90;99.90;;;;;;4957265;29;20472;-84
2023/07/21 01:00:43;;;;;;;5.22;4.82;;;17.90;99.90;;;;;;4956304;29;20506;-84
2023/07/21 01:03:13;;;;;;;7.03;5.32;;;17.90;99.90;;;;;;4957196;29;20054;-84
2023/07/21 01:05:43;;;;;;;;;;;17.90;99.90;;;;;;4957110;29;20078;-84
2023/07/21 01:08:11;;;;;;;8.00;5.85;;;18.30;99.90;;;;;;4956251;29;19921;-84
2023/07/21 01:10:38;;;;;;;5.78;5.28;;;18.00;99.90;;;;;;4956833;29;20028;-84
2023/07/21 01:13:05;;;;;;;7.80;5.90;;;18.30;99.90;;;;;;4956867;29;20031;-83
2023/07/21 01:15:34;;;;;;;6.28;5.78;;;18.30;99.90;;;;;;4956068;29;20027;-83
2023/07/21 01:18:00;;;;;;;6.57;5.97;;;17.90;99.90;;;;;;4958190;29;20062;-85
2023/07/21 01:20:27;;;;;;;6.85;6.35;;;17.90;99.90;;;;;;4956947;29;20027;-84
2023/07/21 01:23:06;;;;;;;6.10;5.55;;;18.20;99.90;;;;;;4955851;29;20089;-84
2023/07/21 01:25:34;;;;;;;6.32;5.80;;;17.80;99.90;;;;;;4956602;29;20118;-84
2023/07/21 01:28:02;;;;;;;7.43;6.00;;;17.80;99.90;;;;;;4957245;29;20507;-84
2023/07/21 01:30:29;;;;;;;6.10;5.65;;;17.80;99.90;;;;;;4956000;29;20114;-83
2023/07/21 01:32:56;;;;;;;6.65;5.97;;;17.80;99.90;;;;;;4956655;29;20035;-83
2023/07/21 01:35:23;;;;;;;5.95;5.35;;;17.70;99.90;;;;;;4955091;28;20391;-83
2023/07/21 01:37:49;;;;;;;6.60;6.07;;;17.80;99.90;;;;;;4955436;29;20042;-84
2023/07/21 01:40:16;;;;;;;5.88;5.20;;;17.70;99.90;;;;;;4956479;29;20027;-84
2023/07/21 01:42:43;;;;;;;7.68;5.60;;;17.60;99.90;;;;;;4956215;29;20027;-84
2023/07/21 01:45:09;;;;;;;6.50;6.00;;;17.60;99.90;;;;;;4955826;29;20028;-84
2023/07/21 01:47:35;;;;;;;6.47;5.97;;;17.70;99.90;;;;;;4955868;29;20058;-84
2023/07/21 01:50:03;;;;;;;7.10;6.43;;;17.90;99.90;;;;;;4955411;29;20356;-84
2023/07/21 01:52:31;;;;;;;6.22;5.72;;;17.70;99.90;;;;;;4955789;28;20122;-84
2023/07/21 01:55:02;;;;;;;6.10;5.60;;;17.60;99.90;;;;;;4956389;29;20028;-83
2023/07/21 01:57:45;;;;;;;6.82;6.15;;;17.60;99.90;;;;;;4955235;29;20275;-83
2023/07/21 02:00:13;;;;;;;7.10;5.90;;;17.60;99.90;;;;;;4955936;29;20102;-83
2023/07/21 02:02:44;;;;;;;6.38;5.88;;;17.60;99.90;;;;;;4955576;29;20514;-83
2023/07/21 02:05:25;;;;;;;7.15;6.30;;;17.60;99.90;;;;;;4955284;29;20106;-83
2023/07/21 02:07:50;;;;;;;;;;;17.60;99.90;;;;;;4956167;29;20035;-84
2023/07/21 02:10:17;;;;;;;6.95;6.30;;;18.00;99.90;;;;;;4955958;29;19907;-84
2023/07/21 02:12:43;;;;;;;8.90;7.95;;;17.50;99.90;;;;;;4954934;29;20081;-83
2023/07/21 02:15:09;;;;;;;8.32;7.63;;;17.40;99.90;;;;;;4955563;29;20418;-84
2023/07/21 02:17:35;;;;;;;8.93;8.13;;;17.40;99.90;;;;;;4955302;29;20062;-83
2023/07/21 02:20:08;;;;;;;9.23;8.52;;;17.40;99.90;;;;;;4955263;29;20102;-84
2023/07/21 02:22:39;;;;;;;8.88;8.07;;;17.30;99.90;;;;;;4955505;29;20050;-85
2023/07/21 02:25:06;;;;;;;9.07;8.38;;;17.30;99.90;;;;;;4955145;28;20023;-84
2023/07/21 02:27:33;;;;;;;10.20;9.23;;;17.20;99.90;;;;;;4955017;29;20039;-85
2023/07/21 02:30:00;;;;;;;9.93;9.10;;;17.20;99.90;;;;;;4955825;29;20047;-84
2023/07/21 02:32:28;;;;;;;10.40;9.50;;;17.20;99.90;;;;;;4955097;29;20051;-84
2023/07/21 02:34:54;;;;;;;9.50;8.70;;;17.10;99.90;;;;;;4955586;29;20086;-84
2023/07/21 02:37:19;;;;;;;9.93;9.13;;;17.00;99.90;;;;;;4955913;29;20027;-84
2023/07/21 02:39:45;;;;;;;9.35;8.65;;;16.90;99.90;;;;;;4954575;29;20483;-84
2023/07/21 02:42:10;;;;;;;11.02;8.80;;;16.90;99.90;;;;;;4955549;29;20034;-84
2023/07/21 02:44:36;;;;;;;9.73;8.90;;;17.00;99.90;;;;;;4955138;29;20503;-84
2023/07/21 02:47:01;;;;;;;9.48;8.75;;;17.00;99.90;;;;;;4954153;28;20038;-84
2023/07/21 02:49:29;;;;;;;11.05;9.95;;;17.00;99.90;;;;;;4955443;29;20062;-84
2023/07/21 02:51:54;;;;;;;10.23;9.32;;;17.00;99.90;;;;;;4955165;29;20027;-84
2023/07/21 02:54:20;;;;;;;13.18;9.65;;;17.00;99.90;;;;;;4954291;28;20050;-83
2023/07/21 02:56:46;;;;;;;9.25;8.55;;;17.00;99.90;;;;;;4962026;29;20031;-84
2023/07/21 02:59:11;;;;;;;9.10;8.30;;;17.10;99.90;;;;;;4955261;29;20077;-84
2023/07/21 03:01:38;;;;;;;10.05;8.95;;;17.10;99.90;;;;;;4954239;29;20031;-84
2023/07/21 03:04:05;;;;;;;8.85;8.25;;;17.10;99.90;;;;;;4954882;29;20027;-84
2023/07/21 03:06:31;;;;;;;8.63;7.93;;;17.10;99.90;;;;;;4955596;29;20032;-85
2023/07/21 03:08:57;;;;;;;8.98;8.27;;;17.10;99.90;;;;;;4956255;29;20102;-85
2023/07/21 03:11:23;;;;;;;7.28;6.68;;;17.10;99.90;;;;;;4955234;29;20019;-85
2023/07/21 03:13:49;;;;;;;7.82;7.22;;;17.10;99.90;;;;;;4954612;29;20039;-85
2023/07/21 03:16:15;;;;;;;7.70;7.05;;;17.10;99.90;;;;;;4954337;29;20023;-84
2023/07/21 03:18:41;;;;;;;7.82;7.15;;;17.10;99.90;;;;;;4954391;29;20051;-84
2023/07/21 03:21:06;;;;;;;8.50;7.70;;;17.00;99.90;;;;;;4954506;29;20511;-85
2023/07/21 03:23:32;;;;;;;7.85;7.25;;;17.00;99.90;;;;;;4953605;29;20031;-85
2023/07/21 03:25:58;;;;;;;8.10;7.28;;;17.00;99.90;;;;;;4954552;29;20023;-85
2023/07/21 03:28:25;;;;;;;8.55;7.68;;;17.00;99.90;;;;;;4953727;29;20034;-85
2023/07/21 03:30:59;;;;;;;7.57;6.97;;;17.00;99.90;;;;;;4954356;29;20029;-85
2023/07/21 03:33:24;;;;;;;7.90;7.30;;;16.90;99.90;;;;;;4954576;29;20551;-85
2023/07/21 03:36:04;;;;;;;7.43;6.88;;;17.00;99.90;;;;;;4953590;29;20114;-85
2023/07/21 03:38:32;;;;;;;8.70;7.68;;;16.90;99.90;;;;;;4953752;29;20035;-86
2023/07/21 03:41:02;;;;;;;7.90;7.30;;;16.90;99.90;;;;;;4954560;29;20027;-85
2023/07/21 03:43:27;;;;;;;8.52;7.72;;;16.90;99.90;;;;;;4953743;29;20047;-85
2023/07/21 03:46:04;;;;;;;7.95;7.28;;;16.90;99.90;;;;;;4954262;29;20041;-85
2023/07/21 03:48:30;;;;;;;8.98;8.30;;;16.90;99.90;;;;;;4954102;29;20031;-85
2023/07/21 03:51:00;;;;;;;9.68;8.32;;;16.90;99.90;;;;;;4953552;29;20031;-85
2023/07/21 03:53:27;;;;;;;9.52;8.60;;;16.90;99.90;;;;;;4954213;28;20077;-84
2023/07/21 03:55:53;;;;;;;9.57;8.77;;;16.90;99.90;;;;;;4953832;29;20480;-84
2023/07/21 03:58:19;;;;;;;8.90;8.20;;;16.80;99.90;;;;;;4955288;28;20127;-84
2023/07/21 04:00:45;;;;;;;9.52;8.43;;;16.90;99.90;;;;;;4962013;29;20038;-87
2023/07/21 04:03:12;;;;;;;9.25;8.50;;;16.80;99.90;;;;;;4959534;29;20039;-84
2023/07/21 04:05:37;;;;;;;8.18;7.50;;;17.70;99.90;;;;;;4956978;29;20054;-84
2023/07/21 04:08:03;;;;;;;9.18;8.25;;;16.90;99.90;;;;;;4958358;29;20106;-84
2023/07/21 04:10:30;;;;;;;8.98;8.13;;;16.80;99.90;;;;;;4957513;28;20479;-84
2023/07/21 04:12:57;;;;;;;10.07;9.05;;;17.30;99.90;;;;;;4957670;29;20499;-85
2023/07/21 04:15:24;;;;;;;9.02;8.20;;;16.80;99.90;;;;;;4959443;29;20396;-84
2023/07/21 04:17:50;;;;;;;9.05;8.35;;;16.80;99.90;;;;;;4956768;29;20465;-84
2023/07/21 04:20:16;;;;;;;10.10;9.13;;;16.70;99.90;;;;;;4957776;29;20117;-84
2023/07/21 04:22:42;;;;;;;9.23;8.43;;;16.80;99.90;;;;;;4961667;29;20019;-84
2023/07/21 04:25:08;;;;;;;10.27;8.93;;;16.80;99.90;;;;;;4957081;29;20531;-84
2023/07/21 04:27:33;;;;;;;10.25;9.35;;;16.80;99.90;;;;;;4957547;29;20042;-84
2023/07/21 04:29:59;;;;;;;10.23;9.32;;;16.80;99.90;;;;;;4957746;29;20110;-84
2023/07/21 04:32:25;;;;;;;9.82;9.02;;;16.80;99.90;;;;;;4961891;28;20026;-84
2023/07/21 04:34:50;;;;;;;9.02;8.32;;;16.80;99.90;;;;;;4976762;28;20031;-84
2023/07/21 04:37:16;;;;;;;8.63;7.93;;;16.80;99.90;;;;;;4944599;28;20028;-84
2023/07/21 04:39:41;;;;;;;8.38;7.78;;;16.80;99.90;;;;;;4945262;29;20499;-85
2023/07/21 04:42:09;;;;;;;9.07;8.38;;;16.80;99.90;;;;;;4950179;29;20028;-85
2023/07/21 04:44:35;;;;;;;13.32;8.60;;;16.80;99.90;;;;;;4938057;29;20024;-84
2023/07/21 04:47:04;;;;;;;9.18;8.30;;;16.90;99.90;;;;;;4937571;29;20568;-84
2023/07/21 04:49:31;;;;;;;9.07;8.27;;;16.90;99.90;;;;;;4937941;29;20023;-84
2023/07/21 04:51:58;;;;;;;9.30;8.15;;;16.90;99.90;;;;;;4937945;29;20035;-84
2023/07/21 04:54:24;;;;;;;8.77;8.10;;;16.90;99.90;;;;;;4937260;29;20079;-85
2023/07/21 04:56:51;;;;;;;9.38;8.10;;;16.90;99.90;;;;;;4945106;29;20110;-85
2023/07/21 04:59:18;;;;;;;8.70;7.88;;;16.90;99.90;;;;;;4956975;29;20032;-84
2023/07/21 05:01:44;;;;;;;11.32;8.60;;;17.00;99.90;;;;;;4956121;29;20059;-84
2023/07/21 05:04:10;;;;;;;8.57;7.78;;;17.00;99.90;;;;;;4957068;29;20102;-85
2023/07/21 05:06:36;;;;;;;8.77;7.88;;;17.10;99.90;;;;;;4956920;29;20040;-85
2023/07/21 05:09:01;;;;;;;8.85;8.15;;;17.00;99.90;;;;;;4955972;28;20023;-85
2023/07/21 05:11:27;;;;;;;8.38;7.78;;;17.10;99.90;;;;;;4956835;29;20074;-85
2023/07/21 05:13:53;;;;;;;9.90;9.02;;;17.10;99.90;;;;;;4949975;29;20110;-85
2023/07/21 05:16:19;;;;;;;7.68;6.97;;;17.10;99.90;;;;;;4937633;29;20034;-85
2023/07/21 05:18:45;;;;;;;8.80;8.10;;;17.10;99.90;;;;;;4937663;29;20028;-84
2023/07/21 05:21:10;;;;;;;9.65;8.80;;;17.20;99.90;;;;;;4936742;29;20059;-85
2023/07/21 05:23:36;;;;;;;8.75;8.05;;;17.20;99.90;;;;;;4937353;29;20107;-84
2023/07/21 05:26:02;;;;;;;8.00;7.40;;;17.20;99.90;;;;;;4937392;29;20036;-84
2023/07/21 05:28:28;;;;;;;9.57;8.68;;;17.20;99.90;;;;;;4936651;29;20129;-84
2023/07/21 05:30:54;;;;;;;9.90;8.90;;;17.30;99.90;;;;;;4937367;29;20048;-84
2023/07/21 05:33:20;;;;;;;8.57;7.88;;;17.30;99.90;;;;;;4949468;29;20031;-84
2023/07/21 05:35:46;;;;;;;9.07;8.27;;;17.20;99.90;;;;;;4953129;29;20050;-84
2023/07/21 05:38:13;;;;;;;8.35;7.55;;;17.30;99.90;;;;;;4937277;29;20082;-85
2023/07/21 05:40:39;;;;;;;9.60;8.60;;;17.30;99.90;;;;;;4936880;29;20361;-84
2023/07/21 05:43:05;;;;;;;7.80;7.20;;;17.30;99.90;;;;;;4939742;29;20028;-84
2023/07/21 05:45:30;;;;;;;7.70;7.10;;;17.30;99.90;;;;;;4944808;29;20107;-84
2023/07/21 05:47:56;;;;;;;9.18;6.90;;;17.30;99.90;;;;;;4944868;29;20035;-84
2023/07/21 05:50:22;;;;;;;7.88;7.18;;;17.40;99.90;;;;;;4944258;29;20034;-85
2023/07/21 05:52:52;;;;;;;9.15;7.80;;;17.40;99.90;;;;;;4947445;28;20962;-84
2023/07/21 05:55:17;;;;;;;7.40;6.80;;;17.40;99.90;;;;;;4955593;29;20059;-85
2023/07/21 05:57:43;;;;;;;6.85;6.35;;;17.40;99.90;;;;;;4955122;29;20074;-84
2023/07/21 06:00:14;;;;;;;7.65;7.00;;;17.50;99.90;;;;;;4947320;29;20438;-84
2023/07/21 06:02:40;;;;;;;6.85;6.35;;;17.50;99.90;;;;;;4945039;29;20032;-85
2023/07/21 06:05:07;;;;;;;7.90;6.10;;;17.50;99.90;;;;;;4944180;29;20086;-84
2023/07/21 06:07:32;;;;;;;6.93;5.63;;;17.60;99.90;;;;;;4943644;29;20456;-85
2023/07/21 06:09:58;;;;;;;6.38;5.78;;;17.60;99.90;;;;;;4944760;29;20055;-84
2023/07/21 06:12:23;;;;;;;5.70;5.20;;;17.60;99.90;;;;;;4943878;29;20384;-84
2023/07/21 06:14:49;;;;;;;6.15;5.55;;;17.60;99.90;;;;;;4945945;29;20020;-84
2023/07/21 06:17:14;;;;;;;6.55;5.50;;;17.70;99.90;;;;;;4945303;29;20043;-84
2023/07/21 06:19:40;;;;;;;6.75;5.70;;;17.70;99.90;;;;;;4944533;29;20027;-84
2023/07/21 06:22:06;;;;;;;6.88;6.15;;;17.70;99.90;;;;;;4947229;29;20030;-84
2023/07/21 06:24:32;;;;;;;6.95;6.25;;;17.70;99.90;;;;;;4945464;29;20035;-84
2023/07/21 06:26:58;;;;;;;6.38;5.88;;;17.70;99.90;;;;;;4939878;29;20396;-85
2023/07/21 06:29:24;;;;;;;6.47;5.78;;;17.80;99.90;;;;;;4936617;29;20027;-85
2023/07/21 06:31:51;;;;;;;6.55;6.00;;;17.80;99.90;;;;;;4935743;29;20501;-85
2023/07/21 06:34:16;;;;;;;5.43;5.03;;;17.80;99.90;;;;;;4936555;29;20055;-85
2023/07/21 06:36:42;;;;;;;4.75;4.10;;;17.90;99.90;;;;;;4935965;29;20063;-85
2023/07/21 06:39:09;;;;;;;6.53;5.05;;;18.00;99.90;;;;;;4935425;29;20035;-83
2023/07/21 06:41:34;;;;;;;4.85;4.38;;;17.90;99.90;;;;;;4935399;29;20479;-84
2023/07/21 06:44:00;;;;;;;4.78;4.38;;;17.90;99.90;;;;;;4936287;29;20127;-84
2023/07/21 06:46:25;;;;;;;4.85;4.40;;;17.90;99.90;;;;;;4943827;29;20050;-83
2023/07/21 06:48:51;;;;;;;4.95;4.25;;;17.90;99.90;;;;;;4942846;29;20033;-83
2023/07/21 06:51:16;;;;;;;5.93;4.55;;;18.00;99.90;;;;;;4944627;29;20102;-84
2023/07/21 06:53:42;;;;;;;5.45;4.95;;;18.20;99.90;;;;;;4943314;29;20043;-83
2023/07/21 06:56:08;;;;;;;7.07;6.32;;;18.00;99.90;;;;;;4945467;29;20467;-84
2023/07/21 06:58:33;;;;;;;7.00;6.25;;;18.00;99.90;;;;;;4943898;29;20050;-85
2023/07/21 07:01:00;;;;;;;9.35;8.45;;;18.10;99.90;;;;;;4947877;29;20031;-84
2023/07/21 07:03:26;;;;;;;7.53;6.80;;;18.10;99.90;;;;;;4951312;29;20424;-83
2023/07/21 07:05:51;;;;;;;9.43;7.32;;;18.00;99.90;;;;;;4952121;29;20029;-84
2023/07/21 07:08:17;;;;;;;9.65;6.57;;;18.00;99.90;;;;;;4952471;29;20030;-84
2023/07/21 07:10:47;;;;;;;6.20;5.70;;;18.00;99.90;;;;;;4943843;29;20026;-85
2023/07/21 07:13:13;;;;;;;;;;;18.00;99.90;;;;;;4937939;29;20031;-84
2023/07/21 07:15:39;;;;;;;10.63;5.78;;;18.00;99.90;;;;;;4938893;29;19922;-83
2023/07/21 07:18:05;;;;;;;11.23;5.88;;;18.00;99.90;;;;;;4940031;29;20575;-84
2023/07/21 07:20:30;;;;;;;18.30;5.97;;;18.00;99.90;;;;;;4940796;29;20066;-84
2023/07/21 07:22:56;;;;;;;5.82;5.05;;;18.50;99.90;;;;;;4937461;29;20027;-85
2023/07/21 07:25:24;;;;;;;4.97;4.57;;;18.00;99.90;;;;;;4940336;29;20027;-84
2023/07/21 07:27:52;;;;;;;7.57;5.45;;;18.00;99.90;;;;;;4940651;29;20044;-84
2023/07/21 07:30:20;;;;;;;6.30;5.47;;;18.00;99.90;;;;;;4947128;29;20031;-84
2023/07/21 07:32:46;;;;;;;5.28;4.88;;;18.00;99.90;;;;;;4949684;28;20108;-83
2023/07/21 07:35:11;;;;;;;5.88;5.38;;;17.90;99.90;;;;;;4953197;29;20152;-80
2023/07/21 07:37:37;;;;;;;10.07;6.30;;;18.00;99.90;;;;;;4952767;29;20475;-82
2023/07/21 07:40:05;;;;;;;7.10;5.20;;;18.00;99.90;;;;;;4945105;29;20023;-81
2023/07/21 07:42:30;;;;;;;10.90;5.60;;;18.00;99.90;;;;;;4947781;29;20464;-83
2023/07/21 07:44:59;;;;;;;6.38;5.78;;;18.00;99.90;;;;;;4935358;29;20035;-82
2023/07/21 07:47:25;;;;;;;9.15;5.90;;;18.00;99.90;;;;;;4935100;29;20044;-82
2023/07/21 07:49:51;;;;;;;6.85;6.25;;;18.10;99.90;;;;;;4934068;29;20035;-82
2023/07/21 07:52:18;;;;;;;5.97;5.57;;;18.10;99.90;;;;;;4933168;29;20138;-82
2023/07/21 07:54:43;;;;;;;5.32;4.90;;;18.50;99.90;;;;;;4932638;29;20115;-82
2023/07/21 07:57:09;;;;;;;6.50;5.05;;;18.20;99.90;;;;;;4934812;29;20035;-82
2023/07/21 07:59:35;;;;;;;8.65;5.70;;;18.20;99.90;;;;;;4932953;29;20029;-82
2023/07/21 08:02:00;;;;;;;5.25;4.75;;;18.20;99.90;;;;;;4933060;29;20031;-82
2023/07/21 08:04:26;;;;;;;6.45;5.25;;;18.20;99.90;;;;;;4933535;29;20042;-82
2023/07/21 08:06:52;;;;;;;4.95;4.55;;;18.30;99.90;;;;;;4952752;29;20428;-82
2023/07/21 08:09:17;;;;;;;6.60;6.00;;;18.30;99.90;;;;;;4945224;29;20094;-82
2023/07/21 08:11:43;;;;;;;6.30;5.72;;;18.40;99.90;;;;;;4953179;29;20055;-82
2023/07/21 08:14:08;;;;;;;4.90;4.50;;;18.30;99.90;;;;;;4950992;29;20277;-82
2023/07/21 08:16:36;;;;;;;6.00;5.00;;;18.60;99.90;;;;;;4945593;29;20031;-83
2023/07/21 08:19:02;;;;;;;5.82;5.32;;;18.40;99.90;;;;;;4950229;29;20435;-82
2023/07/21 08:21:28;;;;;;;6.72;5.93;;;18.40;99.90;;;;;;4953939;29;20140;-82
2023/07/21 08:23:54;;;;;;;5.47;4.97;;;18.40;99.90;;;;;;4953110;29;20597;-82
2023/07/21 08:26:20;;;;;;;5.85;5.35;;;18.40;99.90;;;;;;4954052;29;20093;-82
2023/07/21 08:28:46;;;;;;;7.18;5.38;;;18.40;99.90;;;;;;4953633;29;20027;-82
2023/07/21 08:31:12;;;;;;;4.53;4.13;;;18.50;99.90;;;;;;4953497;29;20035;-82
2023/07/21 08:33:38;;;;;;;5.13;4.22;;;18.50;99.90;;;;;;4953569;29;20522;-82
2023/07/21 08:36:05;;;;;;;3.90;3.60;;;18.50;99.90;;;;;;4947784;29;20027;-82
2023/07/21 08:38:33;;;;;;;5.95;5.07;;;18.50;99.90;;;;;;4952904;29;20038;-82
2023/07/21 08:41:05;;;;;;;6.85;4.22;;;18.60;99.90;;;;;;4953125;29;20464;-82
2023/07/21 08:43:31;;;;;;;5.30;4.80;;;18.60;99.90;;;;;;4941143;29;20060;-86
2023/07/21 08:46:03;;;;;;;5.10;4.50;;;18.60;99.90;;;;;;4945352;29;20058;-85
2023/07/21 08:48:30;;;;;;;5.40;4.60;;;18.60;99.90;;;;;;4954198;29;20055;-85
2023/07/21 08:50:56;;;;;;;7.57;4.63;;;18.70;99.90;;;;;;4954437;29;20032;-84
2023/07/21 08:53:24;;;;;;;4.43;4.13;;;18.60;99.90;;;;;;4944174;29;20135;-85
2023/07/21 08:55:55;;;;;;;4.85;4.50;;;18.60;99.90;;;;;;4941335;29;20027;-85
2023/07/21 08:58:21;;;;;;;;;;;18.60;99.90;;;;;;4949180;29;20062;-84
2023/07/21 09:00:48;;;;;;;4.18;3.80;;;18.60;99.90;;;;;;4946248;29;19906;-86
2023/07/21 09:03:26;;;;;;;5.35;4.95;;;18.70;99.90;;;;;;4936960;29;20031;-85
2023/07/21 09:05:54;;;;;;;6.15;4.68;;;18.80;99.90;;;;;;4935261;29;20286;-85
2023/07/21 09:08:21;;;;;;;4.80;4.50;;;18.80;99.90;;;;;;4936179;29;20031;-84
2023/07/21 09:10:46;;;;;;;5.95;5.35;;;18.90;99.90;;;;;;4939247;29;20110;-85
2023/07/21 09:13:16;;;;;;;4.75;4.20;;;19.50;99.90;;;;;;4934978;29;20127;-85
2023/07/21 09:15:53;;;;;;;3.97;3.67;;;18.90;99.90;;;;;;4935709;29;20099;-84
2023/07/21 09:18:30;;;;;;;2.22;2.03;;;18.90;99.90;;;;;;4952516;29;20480;-85
2023/07/21 09:20:56;;;;;;;3.40;1.65;;;18.90;99.90;;;;;;4954271;29;20031;-85
2023/07/21 09:23:23;;;;;;;6.13;2.60;;;19.00;99.90;;;;;;4954911;29;20439;-85
2023/07/21 09:26:02;;;;;;;1.90;1.45;;;19.00;99.90;;;;;;4954442;29;20028;-83
2023/07/21 09:28:40;;;;;;;2.28;1.50;;;19.00;99.90;;;;;;4955737;29;20463;-85
2023/07/21 09:31:06;;;;;;;1.60;1.45;;;19.10;99.90;;;;;;4956629;29;20077;-85
2023/07/21 09:33:38;;;;;;;1.67;1.58;;;19.10;99.90;;;;;;4956385;29;20039;-85
2023/07/21 09:36:24;;;;;;;1.50;1.40;;;19.10;99.90;;;;;;4954289;29;20065;-85
2023/07/21 09:38:50;;;;;;;1.00;1.00;;;19.20;99.90;;;;;;4954170;29;20134;-85
2023/07/21 09:41:24;;;;;;;1.38;1.23;;;19.50;99.90;;;;;;4954127;29;20102;-85
2023/07/21 09:43:51;;;;;;;0.90;0.90;;;19.20;99.90;;;;;;4953984;29;20574;-84
2023/07/21 09:46:17;;;;;;;1.92;1.10;;;19.10;99.90;;;;;;4954196;29;20038;-87
2023/07/21 09:48:44;;;;;;;3.03;1.50;;;19.30;99.90;;;;;;4952843;29;20438;-83
2023/07/21 09:51:10;;;;;;;4.22;1.40;;;19.30;99.90;;;;;;4955044;29;20055;-83
2023/07/21 09:53:40;;;;;;;1.70;1.30;;;19.60;99.90;;;;;;4954904;28;20087;-83
2023/07/21 09:56:08;;;;;;;;;;;19.40;99.90;;;;;;4953970;28;20483;-82
2023/07/21 09:58:36;;;;;;;1.40;1.30;;;19.40;99.90;;;;;;4954693;29;19907;-83
2023/07/21 10:01:04;;;;;;;2.00;1.25;;;19.30;99.90;;;;;;4954903;29;20484;-83
2023/07/21 10:03:31;;;;;;;2.72;1.40;;;19.30;99.40;;;;;;4954425;29;20027;-85
2023/07/21 10:05:58;;;;;;;1.08;1.00;;;19.30;99.10;;;;;;4954938;29;20098;-82
2023/07/21 10:08:27;;;;;;;2.30;2.00;;;19.30;99.50;;;;;;4954969;29;20414;-84
2023/07/21 10:10:58;;;;;;;1.50;1.35;;;19.30;99.80;;;;;;4953764;29;20534;-82
2023/07/21 10:13:28;;;;;;;1.60;1.50;;;19.40;99.90;;;;;;4954484;29;20035;-84
2023/07/21 10:16:07;;;;;;;5.43;1.60;;;19.40;99.90;;;;;;4954543;29;20027;-85
2023/07/21 10:18:33;;;;;;;3.45;1.80;;;19.40;99.90;;;;;;4954003;29;20443;-84
2023/07/21 10:20:59;;;;;;;3.72;1.90;;;19.40;99.90;;;;;;4954345;29;20023;-85
2023/07/21 10:23:35;;;;;;;1.73;1.60;;;19.30;99.90;;;;;;4954723;29;20110;-85
2023/07/21 10:26:07;;;;;;;3.72;2.20;;;19.40;99.90;;;;;;4954821;29;20062;-85
2023/07/21 10:28:43;;;;;;;2.13;2.03;;;19.40;99.90;;;;;;4955130;29;20085;-85
2023/07/21 10:31:24;;;;;;;2.25;1.95;;;19.40;99.90;;;;;;4953887;29;20050;-82
2023/07/21 10:34:03;;;;;;;2.10;1.90;;;19.50;99.90;;;;;;4940496;29;20067;-85
2023/07/21 10:36:53;;;;;;;1.92;1.75;;;19.40;99.90;;;;;;4935870;29;20432;-84
2023/07/21 10:39:31;;;;;;;1.70;1.60;;;19.40;99.90;;;;;;4944883;28;20031;-84
2023/07/21 10:42:04;;;;;;;1.77;1.67;;;19.30;99.90;;;;;;4954977;29;20031;-84
2023/07/21 10:44:33;;;;;;;2.30;2.10;;;19.30;99.90;;;;;;4954245;29;20035;-84
2023/07/21 10:46:59;;;;;;;1.48;1.38;;;19.30;99.90;;;;;;4955207;29;20030;-84
2023/07/21 10:49:24;;;;;;;1.25;1.10;;;19.40;99.90;;;;;;4955186;29;20031;-84
2023/07/21 10:51:50;;;;;;;3.08;1.90;;;19.40;99.90;;;;;;4953634;29;20463;-84
2023/07/21 10:54:17;;;;;;;4.28;2.10;;;19.20;99.90;;;;;;4954615;28;20126;-84
2023/07/21 10:56:46;;;;;;;5.70;2.45;;;19.40;99.90;;;;;;4954657;29;20055;-84
2023/07/21 10:59:13;;;;;;;2.55;2.30;;;19.10;99.90;;;;;;4954209;29;20023;-84
2023/07/21 11:01:44;;;;;;;2.60;2.40;;;19.00;99.90;;;;;;4954436;29;20043;-84
2023/07/21 11:04:11;;;;;;;2.55;2.35;;;19.10;99.90;;;;;;4954729;29;20487;-84
2023/07/21 11:06:48;;;;;;;3.63;1.88;;;18.80;99.90;;;;;;4953237;28;20122;-85
2023/07/21 11:09:16;;;;;;;2.40;2.13;;;18.80;99.90;;;;;;4954534;29;20032;-84
2023/07/21 11:11:43;;;;;;;2.13;1.92;;;18.70;99.90;;;;;;4954529;29;20024;-85
2023/07/21 11:14:13;;;;;;;2.22;2.05;;;18.70;99.90;;;;;;4951011;29;20031;-85
2023/07/21 11:16:43;;;;;;;3.60;2.75;;;18.60;99.90;;;;;;4936043;29;20383;-84
2023/07/21 11:19:09;;;;;;;3.05;2.33;;;18.90;99.90;;;;;;4940488;29;20055;-85
2023/07/21 11:21:35;;;;;;;2.40;2.22;;;18.60;99.90;;;;;;4947787;29;20078;-85
2023/07/21 11:24:00;;;;;;;2.72;2.42;;;18.60;99.90;;;;;;4941851;29;20031;-84
2023/07/21 11:26:26;;;;;;;3.58;3.28;;;18.60;99.90;;;;;;4944002;29;20055;-84
2023/07/21 11:28:52;;;;;;;6.80;3.50;;;18.50;99.90;;;;;;4942129;29;20061;-84
2023/07/21 11:31:18;;;;;;;5.95;4.28;;;18.30;99.90;;;;;;4944801;29;20189;-84
2023/07/21 11:33:48;;;;;;;7.15;3.60;;;18.20;99.90;;;;;;4939740;29;20439;-84
2023/07/21 11:36:22;;;;;;;3.22;2.45;;;17.70;99.90;;;;;;4939323;29;20083;-85
2023/07/21 11:39:04;;;;;;;3.55;2.60;;;17.40;99.90;;;;;;4943127;29;20028;-85
2023/07/21 11:41:53;;;;;;;4.45;2.42;;;17.30;99.90;;;;;;4942802;29;20425;-85
2023/07/21 11:44:29;;;;;;;3.40;2.13;;;17.30;99.90;;;;;;4944837;29;20024;-84
2023/07/21 11:46:59;;;;;;;6.57;3.22;;;17.30;99.90;;;;;;4944054;29;20039;-85
2023/07/21 11:49:28;;;;;;;3.22;2.20;;;17.40;99.90;;;;;;4942290;29;20030;-85
2023/07/21 11:52:00;;;;;;;2.30;2.10;;;17.40;99.90;;;;;;4944003;29;20030;-85
2023/07/21 11:54:36;;;;;;;3.08;2.72;;;17.40;99.90;;;;;;4939812;29;20112;-84
2023/07/21 11:57:02;;;;;;;2.58;2.00;;;17.40;99.90;;;;;;4934961;29;20023;-85
2023/07/21 11:59:28;;;;;;;3.53;2.67;;;17.40;99.90;;;;;;4934905;29;20562;-85
2023/07/21 12:01:55;;;;;;;3.08;2.70;;;17.30;99.90;;;;;;4934095;29;20034;-85
2023/07/21 12:04:22;;;;;;;3.83;3.33;;;17.20;99.90;;;;;;4934916;29;20034;-85
2023/07/21 12:06:48;;;;;;;4.38;3.60;;;17.10;99.90;;;;;;4934800;29;20055;-85
2023/07/21 12:09:14;;;;;;;7.43;3.90;;;17.10;99.90;;;;;;4934517;29;20034;-85
2023/07/21 12:11:40;;;;;;;3.75;2.83;;;17.60;99.90;;;;;;4934831;29;20114;-85
2023/07/21 12:14:05;;;;;;;3.03;2.72;;;17.20;99.90;;;;;;4935078;29;20024;-85
2023/07/21 12:16:32;;;;;;;3.30;3.10;;;17.10;99.90;;;;;;4933938;29;20472;-85
2023/07/21 12:18:58;;;;;;;4.50;2.90;;;17.20;99.90;;;;;;4935953;29;20059;-85
2023/07/21 12:21:27;;;;;;;3.35;3.05;;;17.30;99.90;;;;;;4938473;29;20035;-85
2023/07/21 12:23:53;;;;;;;3.97;3.08;;;17.50;99.90;;;;;;4937807;29;20109;-85
2023/07/21 12:26:19;;;;;;;3.88;2.63;;;17.50;99.90;;;;;;4938736;29;20031;-85
2023/07/21 12:28:47;;;;;;;3.00;2.80;;;17.60;99.90;;;;;;4938432;29;20040;-85
2023/07/21 12:31:16;;;;;;;3.03;2.83;;;17.70;99.90;;;;;;4937860;29;20020;-85
2023/07/21 12:33:44;;;;;;;2.75;2.55;;;17.90;99.90;;;;;;4938091;29;20075;-85
2023/07/21 12:36:11;;;;;;;4.68;3.13;;;17.90;99.90;;;;;;4939129;29;20046;-85
2023/07/21 12:38:37;;;;;;;4.63;3.30;;;18.00;99.90;;;;;;4937473;29;20035;-85
2023/07/21 12:41:03;;;;;;;4.65;3.40;;;18.10;99.90;;;;;;4938407;29;20031;-85
2023/07/21 12:43:28;;;;;;;4.40;3.85;;;18.20;99.90;;;;;;4938179;29;20063;-85
2023/07/21 12:45:54;;;;;;;3.45;3.00;;;18.40;99.90;;;;;;4937633;29;20394;-86
2023/07/21 12:48:20;;;;;;;4.70;3.38;;;18.40;99.90;;;;;;4937983;29;20039;-86
2023/07/21 12:50:45;;;;;;;4.00;3.60;;;18.40;99.90;;;;;;4937833;29;20028;-85